Time;durP1;ratioP1;P1;durP2;ratioP2;P2;SDS_P1;SDS_P2;PMS_P1;PMS_P2;Temp;Humidity;BMP_temperature;BMP_pressure;BME280_temperature;BME280_humidity;BME280_pressure;Samples;Min_cycle;Max_cycle;Signal;HPM_P1;HPM_P2
2022/12/04 00:04:44;;;;;;;17.15;13.13;;;;;;;4.36;69.02;100090.47;10315430;28;20369;-60
2022/12/04 00:09:46;;;;;;;15.82;12.73;;;;;;;4.36;68.89;100077.28;10315106;28;20369;-61
2022/12/04 00:14:47;;;;;;;16.58;13.05;;;;;;;4.37;68.80;100079.84;10315485;28;20159;-62
2022/12/04 00:20:08;;;;;;;17.20;12.20;;;;;;;4.23;69.22;100062.19;10319069;28;20145;-61
2022/12/04 00:25:10;;;;;;;15.55;12.38;;;;;;;4.24;69.32;100079.69;10315546;28;20054;-60
2022/12/04 00:30:12;;;;;;;15.30;12.15;;;;;;;4.35;69.25;100102.78;10325362;28;20172;-62
2022/12/04 00:35:13;;;;;;;15.68;11.68;;;;;;;4.38;69.37;100109.66;10321169;28;20066;-61
2022/12/04 00:40:15;;;;;;;15.52;12.85;;;;;;;4.18;69.76;100106.38;10323177;28;20128;-61
2022/12/04 00:45:16;;;;;;;16.85;13.07;;;;;;;4.26;69.85;100105.94;10314728;28;20041;-61
2022/12/04 00:50:17;;;;;;;15.30;12.13;;;;;;;4.26;70.06;100111.22;10320044;28;20046;-61
2022/12/04 00:55:21;;;;;;;16.42;12.80;;;;;;;4.36;70.09;100093.94;10309579;28;20049;-61
2022/12/04 01:00:22;;;;;;;17.42;13.10;;;;;;;4.34;69.74;100109.00;10312326;28;20042;-62
2022/12/04 01:05:24;;;;;;;17.13;12.30;;;;;;;4.31;69.79;100093.38;10311618;28;20763;-61
2022/12/04 01:10:25;;;;;;;17.17;13.07;;;;;;;4.38;69.24;100102.63;10312851;28;20057;-60
2022/12/04 01:15:27;;;;;;;17.60;12.80;;;;;;;4.28;69.61;100079.50;10313679;28;20135;-61
2022/12/04 01:20:28;;;;;;;18.05;12.68;;;;;;;4.38;69.46;100065.72;10310013;28;20522;-61
2022/12/04 01:25:29;;;;;;;15.95;12.25;;;;;;;4.34;69.17;100069.47;10310067;28;20159;-60
2022/12/04 01:30:31;;;;;;;17.45;14.13;;;;;;;4.29;68.75;100065.41;10310578;28;20476;-62
2022/12/04 01:35:32;;;;;;;15.68;12.63;;;;;;;4.22;69.26;100054.38;10307695;28;20233;-60
2022/12/04 01:40:34;;;;;;;17.00;12.07;;;;;;;4.22;69.55;100049.94;10312031;28;20046;-61
2022/12/04 01:45:46;;;;;;;15.60;12.00;;;;;;;4.14;69.12;100038.97;10325440;28;20056;-60
2022/12/04 01:50:50;;;;;;;17.67;12.27;;;;;;;4.18;69.05;100053.69;10322843;28;20042;-61
2022/12/04 01:55:52;;;;;;;16.40;12.87;;;;;;;4.22;69.39;100063.13;10311072;28;20065;-61
2022/12/04 02:00:59;;;;;;;17.50;13.10;;;;;;;4.16;69.46;100071.38;10307475;28;20372;-60
2022/12/04 02:06:06;;;;;;;15.68;12.60;;;;;;;4.27;69.53;100072.56;10309935;28;20096;-60
2022/12/04 02:11:36;;;;;;;15.32;12.43;;;;;;;4.27;69.28;100068.13;10311721;28;20046;-60
2022/12/04 02:16:47;;;;;;;16.10;13.30;;;;;;;4.27;69.12;100067.28;10311852;28;20243;-60
2022/12/04 02:21:54;;;;;;;15.43;12.25;;;;;;;4.28;69.34;100079.50;10309950;28;20145;-62
2022/12/04 02:27:08;;;;;;;14.32;12.25;;;;;;;4.28;69.45;100084.75;10306215;28;20489;-63
2022/12/04 02:32:18;;;;;;;14.37;12.00;;;;;;;4.17;69.66;100077.47;10306645;28;20420;-63
2022/12/04 02:37:33;;;;;;;15.60;11.43;;;;;;;4.18;69.61;100077.41;10302602;28;20053;-61
2022/12/04 02:42:42;;;;;;;14.82;11.63;;;;;;;4.18;69.65;100085.28;10305469;28;20136;-63
2022/12/04 02:47:45;;;;;;;15.35;11.85;;;;;;;4.12;69.34;100072.47;10306178;28;20053;-62
2022/12/04 02:52:56;;;;;;;14.90;11.45;;;;;;;4.22;69.61;100083.34;10310490;28;20564;-60
2022/12/04 02:58:03;;;;;;;16.35;12.45;;;;;;;4.27;69.29;100083.09;10302079;28;20046;-62
2022/12/04 03:03:09;;;;;;;15.13;12.57;;;;;;;4.18;69.40;100051.03;10306094;28;21582;-63
2022/12/04 03:08:18;;;;;;;14.55;11.95;;;;;;;4.25;69.64;100076.13;10308084;28;20052;-61
2022/12/04 03:13:29;;;;;;;14.60;11.80;;;;;;;4.25;69.30;100068.22;10317548;28;20120;-62
2022/12/04 03:18:36;;;;;;;15.88;11.90;;;;;;;4.22;69.66;100057.84;10302112;28;20050;-62
2022/12/04 03:23:53;;;;;;;15.02;12.43;;;;;;;4.28;69.49;100063.69;10307318;28;20069;-62
2022/12/04 03:29:17;;;;;;;18.33;12.68;;;;;;;4.17;69.32;100059.88;10305552;28;20591;-62
2022/12/04 03:34:31;;;;;;;16.52;13.27;;;;;;;4.25;69.67;100070.00;10303629;28;20138;-62
2022/12/04 03:39:42;;;;;;;17.20;12.73;;;;;;;4.21;70.10;100058.78;10313815;28;20064;-62
2022/12/04 03:45:00;;;;;;;15.07;12.15;;;;;;;4.21;69.93;100064.03;10314389;28;20047;-62
2022/12/04 03:50:12;;;;;;;17.15;12.70;;;;;;;4.20;69.63;100051.81;10312114;28;21110;-62
2022/12/04 03:55:22;;;;;;;16.73;12.30;;;;;;;4.23;69.06;100062.19;10313423;28;20519;-62
2022/12/04 04:00:24;;;;;;;14.98;12.48;;;;;;;4.21;69.49;100045.59;10311302;28;20268;-61
2022/12/04 04:05:28;;;;;;;16.88;13.25;;;;;;;4.22;70.04;100055.22;10310660;28;20050;-62
2022/12/04 04:10:30;;;;;;;15.35;11.32;;;;;;;4.18;69.22;100045.78;10314210;28;20073;-61
2022/12/04 04:26:18;;;;;;;16.98;12.40;;;;;;;4.21;69.66;100027.16;10308599;28;20046;-61
2022/12/04 04:31:44;;;;;;;16.52;12.85;;;;;;;4.14;70.02;100030.22;10312320;28;20480;-61
2022/12/04 04:37:10;;;;;;;16.38;11.88;;;;;;;4.16;70.00;100039.75;10313473;28;20053;-62
2022/12/04 04:42:29;;;;;;;16.52;12.27;;;;;;;4.14;69.66;100031.06;10311838;28;20421;-61
2022/12/04 04:47:37;;;;;;;18.08;12.75;;;;;;;4.07;69.82;100035.03;10312565;28;20634;-60
2022/12/04 04:52:43;;;;;;;15.70;11.82;;;;;;;4.10;69.79;100045.38;10312375;28;20756;-62
2022/12/04 04:57:44;;;;;;;16.17;11.80;;;;;;;4.08;69.59;100036.69;10311914;28;20428;-62
2022/12/04 05:02:47;;;;;;;15.48;12.38;;;;;;;4.10;69.52;100042.75;10309534;28;20046;-62
2022/12/04 05:07:48;;;;;;;14.75;12.35;;;;;;;4.10;69.40;100034.84;10312444;28;20357;-63
2022/12/04 05:12:50;;;;;;;16.25;12.82;;;;;;;4.03;69.53;100036.97;10309255;28;20057;-62
2022/12/04 05:17:51;;;;;;;17.67;13.13;;;;;;;4.14;69.08;100038.13;10309541;28;20216;-61
2022/12/04 05:22:53;;;;;;;17.42;12.88;;;;;;;4.08;69.18;100031.44;10310830;28;20058;-61
2022/12/04 05:27:54;;;;;;;15.38;11.73;;;;;;;4.09;69.15;100025.22;10309615;28;20420;-62
2022/12/04 05:32:55;;;;;;;15.93;12.55;;;;;;;4.08;69.32;100034.06;10310023;28;20050;-62
2022/12/04 05:37:57;;;;;;;15.10;12.00;;;;;;;4.13;68.80;100029.41;10311611;28;20050;-61
2022/12/04 05:42:58;;;;;;;15.40;11.38;;;;;;;4.13;69.04;100034.66;10308750;28;20139;-61
2022/12/04 05:48:00;;;;;;;16.27;12.57;;;;;;;4.15;68.74;100038.06;10309591;28;20366;-61
2022/12/04 05:53:01;;;;;;;17.15;12.63;;;;;;;4.10;69.17;100040.13;10309648;28;20128;-61
2022/12/04 05:58:03;;;;;;;16.92;11.68;;;;;;;3.96;68.79;100026.88;10306645;28;20046;-61
2022/12/04 06:03:04;;;;;;;13.90;10.63;;;;;;;3.94;68.53;100045.38;10309482;28;20046;-60
2022/12/04 06:08:06;;;;;;;15.30;11.38;;;;;;;3.82;69.56;100049.56;10313709;28;20057;-59
2022/12/04 06:13:07;;;;;;;15.25;11.77;;;;;;;3.77;69.58;100048.97;10307850;28;20312;-60
2022/12/04 06:18:09;;;;;;;15.00;12.07;;;;;;;3.81;68.57;100044.38;10307012;28;20058;-61
2022/12/04 06:23:10;;;;;;;14.60;11.07;;;;;;;3.89;68.63;100058.81;10308833;28;20053;-61
2022/12/04 06:28:11;;;;;;;15.77;11.93;;;;;;;3.92;68.55;100062.19;10304916;28;20500;-61
2022/12/04 06:33:13;;;;;;;16.42;12.10;;;;;;;3.88;68.56;100054.47;10301868;28;20050;-61
2022/12/04 06:38:14;;;;;;;14.98;11.68;;;;;;;3.78;68.69;100042.75;10309062;28;20611;-61
2022/12/04 06:43:15;;;;;;;15.18;10.77;;;;;;;3.90;68.80;100059.66;10302557;28;20383;-61
2022/12/04 06:48:16;;;;;;;14.40;11.55;;;;;;;3.99;68.46;100050.41;10302826;28;20057;-61
2022/12/04 06:53:19;;;;;;;14.25;11.05;;;;;;;3.66;68.63;100046.94;10306722;28;20058;-60
2022/12/04 06:58:20;;;;;;;13.93;11.13;;;;;;;3.85;68.67;100052.00;10308445;28;20655;-61
2022/12/04 07:03:23;;;;;;;13.23;10.73;;;;;;;3.89;68.50;100048.28;10307493;28;20056;-61
2022/12/04 07:08:25;;;;;;;14.30;11.35;;;;;;;3.97;68.47;100052.28;10307934;28;20579;-61
2022/12/04 07:13:26;;;;;;;15.02;11.27;;;;;;;3.87;68.47;100050.16;10327805;28;20061;-62
2022/12/04 07:18:29;;;;;;;11.98;10.48;;;;;;;3.77;69.53;100040.19;10339680;28;20121;-61
2022/12/04 07:23:30;;;;;;;12.55;10.80;;;;;;;3.80;69.08;100040.03;10306422;28;20519;-61
2022/12/04 07:28:32;;;;;;;13.10;10.63;;;;;;;3.79;69.03;100046.25;10302820;28;20045;-62
2022/12/04 07:33:34;;;;;;;13.30;10.65;;;;;;;3.79;69.40;100035.72;10302143;28;20536;-61
2022/12/04 07:38:36;;;;;;;13.48;10.18;;;;;;;3.75;69.35;100036.81;10303847;28;20251;-61
2022/12/04 07:43:38;;;;;;;14.00;10.50;;;;;;;3.79;69.36;100041.81;10299724;28;20057;-61
2022/12/04 07:48:39;;;;;;;13.27;10.90;;;;;;;3.63;69.17;100014.66;10296882;28;20553;-60
2022/12/04 07:53:41;;;;;;;13.25;10.60;;;;;;;3.84;69.02;100044.19;10289258;28;20060;-63
2022/12/04 07:58:43;;;;;;;14.25;11.32;;;;;;;3.78;69.12;100045.38;10299957;28;20381;-60
2022/12/04 08:03:45;;;;;;;14.30;10.65;;;;;;;3.77;69.40;100050.72;10294652;28;20049;-61
2022/12/04 08:08:49;;;;;;;16.40;11.40;;;;;;;3.85;69.45;100053.81;10290910;28;20208;-63
2022/12/04 08:13:56;;;;;;;12.90;10.75;;;;;;;3.88;69.07;100067.63;10295023;28;20084;-62
2022/12/04 08:18:58;;;;;;;14.73;12.07;;;;;;;3.88;69.41;100067.63;10294329;28;20323;-60
2022/12/04 08:24:00;;;;;;;16.42;11.10;;;;;;;3.80;69.80;100059.34;10297217;28;20080;-62
2022/12/04 08:29:03;;;;;;;15.52;11.00;;;;;;;3.96;69.82;100066.38;10317928;28;20050;-62
2022/12/04 08:34:06;;;;;;;16.20;11.18;;;;;;;3.87;70.46;100065.09;10301050;28;20081;-61
2022/12/04 08:39:10;;;;;;;14.95;11.82;;;;;;;3.92;70.59;100063.06;10301348;28;20058;-60
2022/12/04 08:44:11;;;;;;;15.93;12.18;;;;;;;3.92;70.78;100054.31;10302717;28;20057;-59
2022/12/04 08:49:13;;;;;;;18.20;12.18;;;;;;;4.00;70.90;100065.28;10317936;28;20248;-62
2022/12/04 08:54:14;;;;;;;15.68;11.55;;;;;;;3.99;70.82;100058.28;10298152;28;20301;-61
2022/12/04 08:59:15;;;;;;;18.42;13.05;;;;;;;3.80;71.25;100027.75;10295005;28;20512;-64
2022/12/04 09:04:17;;;;;;;17.65;13.93;;;;;;;3.98;71.50;100049.56;10300966;28;20426;-60
2022/12/04 09:09:19;;;;;;;17.80;12.95;;;;;;;3.94;71.49;100010.31;10303938;28;20068;-62
2022/12/04 09:14:24;;;;;;;16.70;12.82;;;;;;;4.08;71.48;100031.44;10310365;28;20046;-61
2022/12/04 09:19:25;;;;;;;19.85;13.45;;;;;;;4.04;72.16;100035.19;10308680;28;20058;-61
2022/12/04 09:24:29;;;;;;;19.90;15.18;;;;;;;4.09;72.04;100037.56;10310075;28;20054;-61
2022/12/04 09:29:31;;;;;;;18.48;13.25;;;;;;;3.97;72.28;100024.13;10308402;28;20058;-62
2022/12/04 09:34:32;;;;;;;20.65;14.07;;;;;;;4.19;72.19;100041.38;10306649;28;20045;-60
2022/12/04 09:39:34;;;;;;;22.00;14.23;;;;;;;4.08;71.96;100002.44;10309022;28;20050;-61
2022/12/04 09:44:42;;;;;;;19.77;14.23;;;;;;;4.37;71.70;100031.56;10305224;28;20631;-61
2022/12/04 09:50:09;;;;;;;20.13;14.80;;;;;;;4.27;71.68;100014.59;10301313;28;20042;-62
2022/12/04 09:55:16;;;;;;;18.40;13.55;;;;;;;4.42;72.12;100025.06;10303694;28;20204;-60
2022/12/04 10:00:19;;;;;;;20.00;13.88;;;;;;;4.46;71.68;100036.28;10322158;28;20050;-60
2022/12/04 10:05:30;;;;;;;19.48;14.40;;;;;;;4.46;71.58;100025.75;10304704;28;20058;-60
2022/12/04 10:10:32;;;;;;;21.55;14.18;;;;;;;4.47;71.86;100032.69;10303719;28;20050;-59
2022/12/04 10:15:45;;;;;;;21.25;15.75;;;;;;;4.41;72.14;100028.66;10297730;28;20050;-61
2022/12/04 10:21:22;;;;;;;19.27;14.20;;;;;;;4.50;72.32;100027.25;10301311;28;20544;-60
2022/12/04 10:26:32;;;;;;;24.83;17.23;;;;;;;4.55;72.10;100030.47;10303170;28;20080;-63
2022/12/04 10:31:36;;;;;;;23.80;15.40;;;;;;;4.56;72.21;100016.34;10299991;28;20356;-62
2022/12/04 10:36:38;;;;;;;20.77;15.07;;;;;;;4.60;71.46;100009.09;10301233;28;20416;-62
2022/12/04 10:41:50;;;;;;;20.88;14.98;;;;;;;4.69;71.58;99983.97;10302223;28;20074;-61
2022/12/04 10:47:00;;;;;;;21.67;14.82;;;;;;;4.70;71.96;99985.66;10302566;28;20384;-60
2022/12/04 10:52:03;;;;;;;21.88;15.02;;;;;;;4.76;71.42;99994.06;10298986;28;20061;-60
2022/12/04 10:57:07;;;;;;;19.77;14.45;;;;;;;4.83;71.56;99986.63;10299259;28;20150;-63
2022/12/04 11:02:31;;;;;;;22.17;15.17;;;;;;;4.76;71.56;99980.03;10301403;28;20062;-59
2022/12/04 11:07:35;;;;;;;22.02;14.27;;;;;;;4.74;71.44;99960.81;10294639;28;20057;-60
2022/12/04 11:12:37;;;;;;;32.20;15.32;;;;;;;4.87;71.13;99971.47;10294531;28;20160;-61
2022/12/04 11:17:38;;;;;;;19.10;14.43;;;;;;;4.88;71.11;99950.28;10299265;28;20182;-61
2022/12/04 11:22:49;;;;;;;20.23;13.85;;;;;;;4.89;70.82;99946.66;10306026;28;20193;-61
2022/12/04 11:27:54;;;;;;;17.88;13.60;;;;;;;4.87;70.32;99930.09;10305575;28;20515;-60
2022/12/04 11:32:56;;;;;;;18.17;13.65;;;;;;;4.75;71.28;99936.97;10302515;28;20156;-60
2022/12/04 11:38:08;;;;;;;17.27;13.13;;;;;;;4.80;71.18;99949.88;10313366;28;20068;-61
2022/12/04 11:43:14;;;;;;;16.92;13.32;;;;;;;4.85;71.05;99926.72;10310284;28;20053;-61
2022/12/04 11:48:17;;;;;;;20.40;13.65;;;;;;;4.94;70.85;99927.94;10307605;28;20057;-60
2022/12/04 11:53:27;;;;;;;18.02;12.52;;;;;;;5.21;69.99;99920.09;10310704;28;20058;-61
2022/12/04 11:58:43;;;;;;;16.95;13.57;;;;;;;5.06;69.98;99921.03;10324560;28;20045;-58
2022/12/04 12:04:13;;;;;;;18.25;13.05;;;;;;;5.09;70.36;99924.34;10315831;28;20358;-60
2022/12/04 12:09:34;;;;;;;16.27;13.70;;;;;;;4.96;70.41;99918.13;10316434;28;20589;-61
2022/12/04 12:14:52;;;;;;;17.50;12.75;;;;;;;5.04;70.43;99934.31;10311917;28;20515;-60
2022/12/04 12:20:11;;;;;;;18.45;13.77;;;;;;;4.95;71.18;99938.41;10314593;28;20117;-61
2022/12/04 12:25:43;;;;;;;18.30;12.55;;;;;;;4.88;71.14;99946.75;10313349;28;20520;-61
2022/12/04 12:31:21;;;;;;;19.05;14.15;;;;;;;4.81;71.67;99956.84;10308727;28;20046;-61
2022/12/04 12:36:25;;;;;;;15.73;11.68;;;;;;;4.84;71.22;99958.47;10305747;28;20046;-62
2022/12/04 12:41:40;;;;;;;20.20;13.52;;;;;;;4.77;71.14;99950.94;10307095;28;20248;-61
2022/12/04 12:46:50;;;;;;;16.90;12.17;;;;;;;4.83;70.77;99944.41;10308183;28;20051;-61
2022/12/04 12:52:00;;;;;;;16.13;12.27;;;;;;;4.87;70.73;99927.47;10311350;28;20129;-60
2022/12/04 12:57:09;;;;;;;16.55;12.35;;;;;;;4.85;71.37;99958.38;10303550;28;20194;-62
2022/12/04 13:02:27;;;;;;;16.70;12.73;;;;;;;4.96;70.51;99953.28;10304707;28;20061;-59
2022/12/04 13:07:44;;;;;;;17.17;12.65;;;;;;;4.88;70.76;99945.00;10302976;28;20416;-60
2022/12/04 13:12:56;;;;;;;16.95;11.88;;;;;;;4.92;70.81;99941.22;10302191;28;20049;-60
2022/12/04 13:17:59;;;;;;;18.70;13.07;;;;;;;4.85;71.14;99926.72;10305392;28;20133;-61
2022/12/04 13:23:35;;;;;;;17.75;12.55;;;;;;;4.83;70.61;99902.22;10308622;28;20050;-61
2022/12/04 13:29:00;;;;;;;18.48;13.27;;;;;;;4.78;71.30;99913.06;10310352;28;20052;-61
2022/12/04 13:34:17;;;;;;;20.90;14.93;;;;;;;4.85;71.55;99920.59;10306702;28;20132;-61
2022/12/04 13:39:47;;;;;;;17.13;13.68;;;;;;;4.82;71.30;99902.31;10306486;28;20669;-61
2022/12/04 13:44:54;;;;;;;19.83;14.85;;;;;;;4.62;71.64;99859.56;10303237;28;20140;-61
2022/12/04 13:50:30;;;;;;;19.90;13.77;;;;;;;4.82;71.40;99895.28;10303323;28;20224;-61
2022/12/04 13:55:34;;;;;;;19.10;14.30;;;;;;;4.87;71.84;99900.25;10284266;28;20065;-61
2022/12/04 14:00:41;;;;;;;16.58;12.88;;;;;;;4.94;71.59;99891.03;10300295;28;20160;-61
2022/12/04 14:05:46;;;;;;;16.58;12.75;;;;;;;4.89;71.70;99882.53;10303185;28;20046;-61
2022/12/04 14:11:03;;;;;;;20.38;13.90;;;;;;;4.83;71.95;99886.41;10304137;28;20315;-61
2022/12/04 14:16:40;;;;;;;16.52;13.10;;;;;;;4.77;71.73;99877.09;10312531;28;20054;-60
2022/12/04 14:21:44;;;;;;;17.30;13.10;;;;;;;4.67;71.86;99861.91;10295893;28;20054;-61
2022/12/04 14:26:50;;;;;;;18.67;12.98;;;;;;;4.79;71.52;99879.63;10299259;28;20051;-61
2022/12/04 14:32:22;;;;;;;15.80;12.30;;;;;;;4.77;71.49;99887.66;10304859;28;20611;-62
2022/12/04 14:37:39;;;;;;;18.40;13.07;;;;;;;4.82;71.63;99895.28;10293971;28;20046;-61
2022/12/04 14:42:40;;;;;;;19.33;14.75;;;;;;;4.72;71.63;99896.78;10294451;28;20058;-62
2022/12/04 14:48:09;;;;;;;17.75;13.50;;;;;;;4.73;71.96;99901.97;10299586;28;20076;-61
2022/12/04 14:53:34;;;;;;;17.85;14.32;;;;;;;4.75;71.94;99909.78;10300080;28;20599;-60
2022/12/04 14:58:37;;;;;;;17.77;14.23;;;;;;;4.82;74.26;99905.81;10300954;28;20195;-60
2022/12/04 15:03:43;;;;;;;18.73;13.85;;;;;;;5.59;70.86;99910.66;10296626;28;20408;-61
2022/12/04 15:08:50;;;;;;;20.13;16.02;;;;;;;5.36;70.77;99910.34;10291949;28;20416;-61
2022/12/04 15:13:51;;;;;;;19.02;14.25;;;;;;;5.19;70.83;99914.03;10300976;28;20064;-61
2022/12/04 15:18:57;;;;;;;22.42;19.60;;;;;;;4.96;71.25;99886.50;10298924;28;20936;-61
2022/12/04 15:23:58;;;;;;;19.15;14.60;;;;;;;5.05;71.10;99916.72;10296438;28;20045;-62
2022/12/04 15:29:03;;;;;;;16.55;13.05;;;;;;;4.89;71.52;99896.56;10294706;28;20088;-62
2022/12/04 15:34:12;;;;;;;16.92;12.82;;;;;;;4.89;71.30;99912.38;10299004;28;20053;-61
2022/12/04 15:39:21;;;;;;;18.63;13.85;;;;;;;4.93;71.52;99924.44;10303922;28;20056;-60
2022/12/04 15:44:27;;;;;;;19.08;14.18;;;;;;;4.93;71.85;99927.09;10304691;28;20064;-61
2022/12/04 15:49:31;;;;;;;17.38;14.73;;;;;;;5.00;71.59;99929.34;10308158;28;20056;-60
2022/12/04 15:54:35;;;;;;;18.88;15.77;;;;;;;4.94;71.67;99927.94;10303770;28;20046;-61
2022/12/04 15:59:36;;;;;;;17.83;14.35;;;;;;;4.86;72.11;99931.03;10301652;28;20049;-62
2022/12/04 16:04:38;;;;;;;17.17;13.88;;;;;;;4.95;71.82;99933.13;10293059;28;20111;-62
2022/12/04 16:09:51;;;;;;;18.23;13.93;;;;;;;4.98;71.72;99939.97;10298569;28;20114;-59
2022/12/04 16:14:54;;;;;;;17.02;14.05;;;;;;;4.82;71.28;99897.91;10304873;28;20089;-62
2022/12/04 16:19:57;;;;;;;19.13;14.38;;;;;;;5.01;71.51;99934.50;10305357;28;20054;-63
2022/12/04 16:24:59;;;;;;;19.98;15.23;;;;;;;4.98;72.16;99936.50;10305456;28;20276;-61
2022/12/04 16:30:00;;;;;;;18.02;14.07;;;;;;;4.89;72.23;99943.19;10305852;28;20891;-61
2022/12/04 16:35:02;;;;;;;19.30;14.75;;;;;;;4.74;72.27;99918.63;10305071;28;20677;-62
2022/12/04 16:40:05;;;;;;;19.88;15.07;;;;;;;4.88;72.83;99931.81;10296546;28;20050;-60
2022/12/04 16:45:21;;;;;;;17.92;14.98;;;;;;;4.93;72.33;99934.16;10296858;28;20049;-61
2022/12/04 16:50:23;;;;;;;19.10;15.00;;;;;;;4.86;72.71;99923.13;10304399;28;20042;-59
2022/12/04 16:55:34;;;;;;;19.83;15.57;;;;;;;4.84;72.55;99919.75;10305859;28;20053;-61
2022/12/04 17:00:35;;;;;;;17.55;15.23;;;;;;;4.83;72.75;99918.03;10308884;28;20049;-61
2022/12/04 17:05:37;;;;;;;20.65;16.83;;;;;;;4.85;73.94;99916.19;10305066;28;20417;-61
2022/12/04 17:10:38;;;;;;;19.85;15.52;;;;;;;4.89;73.52;99914.19;10306617;28;20500;-61
2022/12/04 17:15:39;;;;;;;19.02;14.73;;;;;;;4.83;74.18;99899.59;10312025;28;20759;-61
2022/12/04 17:20:42;;;;;;;20.63;16.02;;;;;;;4.80;74.28;99904.22;10310924;28;20058;-60
2022/12/04 17:25:43;;;;;;;20.08;15.50;;;;;;;4.84;74.93;99911.84;10307859;28;20075;-61
2022/12/04 17:30:45;;;;;;;20.20;15.77;;;;;;;4.82;75.12;99904.94;10307377;28;20076;-62
2022/12/04 17:35:46;;;;;;;18.20;14.65;;;;;;;4.67;75.23;99881.25;10308866;28;20199;-63
2022/12/04 17:40:59;;;;;;;17.23;15.20;;;;;;;4.73;75.63;99886.13;10309815;28;20145;-64
2022/12/04 17:46:08;;;;;;;21.20;16.50;;;;;;;4.80;75.74;99883.94;10308346;28;20060;-62
2022/12/04 17:51:21;;;;;;;22.98;18.80;;;;;;;4.83;75.64;99875.00;10330010;28;20085;-61
2022/12/04 17:56:23;;;;;;;17.35;14.15;;;;;;;4.62;76.08;99874.56;10303014;28;20046;-61
2022/12/04 18:01:27;;;;;;;18.73;14.93;;;;;;;4.58;77.35;99866.84;10313088;28;20137;-61
2022/12/04 18:06:35;;;;;;;17.33;14.23;;;;;;;4.67;76.88;99864.56;10314104;28;20489;-61
2022/12/04 18:11:40;;;;;;;18.02;14.43;;;;;;;4.57;77.35;99875.69;10320500;28;20045;-61
2022/12/04 18:16:51;;;;;;;18.50;14.70;;;;;;;4.67;77.02;99875.97;10322354;28;20635;-61
2022/12/04 18:21:54;;;;;;;17.10;13.77;;;;;;;4.70;77.14;99874.91;10317379;28;20065;-60
2022/12/04 18:26:55;;;;;;;17.60;14.32;;;;;;;4.71;77.33;99889.81;10325654;28;20280;-61
2022/12/04 18:31:57;;;;;;;17.02;13.93;;;;;;;4.71;76.73;99887.16;10314456;28;20886;-62
2022/12/04 18:36:58;;;;;;;20.38;18.23;;;;;;;4.74;76.86;99897.53;10325404;28;20050;-62
2022/12/04 18:42:00;;;;;;;16.45;13.80;;;;;;;4.70;77.10;99917.09;10332436;28;20081;-62
2022/12/04 18:47:01;;;;;;;17.33;14.82;;;;;;;4.73;77.89;99911.66;10311289;28;20468;-61
2022/12/04 18:52:03;;;;;;;20.58;15.27;;;;;;;4.86;77.75;99891.47;10308200;28;20727;-63
2022/12/04 18:57:04;;;;;;;16.95;14.18;;;;;;;4.84;77.21;99882.81;10299690;28;20136;-64
2022/12/04 19:02:05;;;;;;;14.95;12.65;;;;;;;4.67;77.44;99889.16;10299678;28;20053;-64
2022/12/04 19:07:07;;;;;;;21.05;15.23;;;;;;;4.71;77.53;99906.47;10300940;28;20053;-61
2022/12/04 19:12:08;;;;;;;16.90;14.35;;;;;;;4.78;77.28;99904.31;10303061;28;20065;-62
2022/12/04 19:17:10;;;;;;;17.17;14.65;;;;;;;4.80;77.50;99902.41;10301120;28;20061;-63
2022/12/04 19:22:12;;;;;;;17.48;15.55;;;;;;;4.76;77.84;99916.75;10304066;28;20441;-62
2022/12/04 19:27:14;;;;;;;18.83;15.10;;;;;;;4.81;76.77;99924.38;10296678;28;20057;-62
2022/12/04 19:32:15;;;;;;;19.27;14.95;;;;;;;4.70;76.48;99912.69;10303078;28;20053;-63
2022/12/04 19:37:17;;;;;;;18.80;15.88;;;;;;;4.51;76.46;99891.88;10298325;28;20064;-62
2022/12/04 19:42:19;;;;;;;18.05;14.30;;;;;;;4.85;76.41;99944.31;10302178;28;20045;-65
2022/12/04 19:47:20;;;;;;;20.85;15.93;;;;;;;4.86;76.20;99936.31;10297695;28;20062;-62
2022/12/04 19:52:22;;;;;;;19.48;14.63;;;;;;;4.91;76.02;99936.91;10298994;28;20180;-66
2022/12/04 19:57:23;;;;;;;17.60;14.43;;;;;;;4.81;75.47;99917.31;10303561;28;20661;-65
2022/12/04 20:02:25;;;;;;;18.88;14.85;;;;;;;4.89;75.63;99937.91;10302476;28;20832;-66
2022/12/04 20:07:26;;;;;;;19.08;14.50;;;;;;;4.76;76.15;99917.59;10302878;28;20046;-64
2022/12/04 20:12:27;;;;;;;18.42;14.43;;;;;;;4.85;76.15;99932.00;10300060;28;20138;-66
2022/12/04 20:17:30;;;;;;;19.00;15.15;;;;;;;4.87;75.82;99940.66;10299694;28;21067;-64
2022/12/04 20:22:33;;;;;;;18.48;14.88;;;;;;;4.89;76.07;99936.13;10305767;28;20648;-65
2022/12/04 20:27:35;;;;;;;18.50;15.25;;;;;;;4.89;75.71;99943.19;10312104;28;21074;-65
2022/12/04 20:32:36;;;;;;;20.08;16.52;;;;;;;4.90;75.78;99956.28;10310803;28;20064;-66
2022/12/04 20:37:38;;;;;;;19.75;16.40;;;;;;;4.83;75.79;99957.59;10311834;28;20049;-64
2022/12/04 20:42:39;;;;;;;18.58;14.93;;;;;;;4.79;75.88;99953.47;10311229;28;20050;-64
2022/12/04 20:47:41;;;;;;;19.38;15.30;;;;;;;4.98;75.44;99968.16;10308139;28;20428;-65
2022/12/04 20:52:42;;;;;;;18.63;15.25;;;;;;;5.02;74.93;99957.31;10305757;28;20050;-65
2022/12/04 20:57:43;;;;;;;18.92;14.68;;;;;;;5.02;75.20;99959.97;10310176;28;20075;-62
2022/12/04 21:02:46;;;;;;;20.50;15.60;;;;;;;4.92;75.68;99959.69;10310385;28;20054;-63
2022/12/04 21:07:49;;;;;;;18.45;14.70;;;;;;;4.89;75.91;99946.66;10305725;28;20053;-64
2022/12/04 21:18:10;;;;;;;19.08;15.98;;;;;;;4.87;75.56;99948.56;10312118;28;20066;-64
2022/12/04 21:23:11;;;;;;;21.10;15.60;;;;;;;4.96;75.63;99977.00;10310112;28;20414;-65
2022/12/04 21:28:13;;;;;;;19.48;14.25;;;;;;;4.78;75.51;99941.22;10307729;28;20547;-64
2022/12/04 21:33:15;;;;;;;19.30;14.95;;;;;;;4.91;75.66;99958.00;10312118;28;20045;-62
2022/12/04 21:38:16;;;;;;;18.60;15.88;;;;;;;5.03;75.77;99985.41;10317243;28;20061;-65
2022/12/04 21:43:18;;;;;;;18.90;14.85;;;;;;;5.04;76.13;99968.63;10312847;28;20132;-62
2022/12/04 21:48:19;;;;;;;20.67;14.90;;;;;;;5.04;76.63;99975.69;10313684;28;20058;-67
2022/12/04 21:53:21;;;;;;;19.30;15.63;;;;;;;4.96;77.26;99982.28;10313250;28;20050;-67
2022/12/04 21:58:25;;;;;;;17.13;14.05;;;;;;;4.85;76.79;99968.94;10313474;28;20054;-69
2022/12/04 22:03:26;;;;;;;18.83;15.13;;;;;;;4.90;77.60;99993.22;10314240;28;20178;-70
2022/12/04 22:08:28;;;;;;;21.73;15.95;;;;;;;4.92;77.34;99991.34;10311448;28;20192;-70
2022/12/04 22:13:29;;;;;;;19.48;15.50;;;;;;;4.92;77.26;99986.06;10312317;28;20053;-66
2022/12/04 22:18:32;;;;;;;17.70;14.27;;;;;;;4.94;77.27;99989.47;10316357;28;20165;-66
2022/12/04 22:23:34;;;;;;;19.10;15.98;;;;;;;4.94;77.48;99986.81;10315356;28;20062;-64
2022/12/04 22:28:36;;;;;;;20.25;15.13;;;;;;;4.89;78.20;99991.50;10302129;28;20526;-64
2022/12/04 22:33:38;;;;;;;18.38;15.43;;;;;;;4.87;78.13;99993.41;10294425;28;20514;-63
2022/12/04 22:38:40;;;;;;;16.63;14.65;;;;;;;4.85;77.95;99990.03;10304083;28;20050;-63
2022/12/04 22:44:01;;;;;;;21.40;16.08;;;;;;;4.80;77.97;99984.16;10311393;28;20077;-63
2022/12/04 22:49:03;;;;;;;17.52;15.43;;;;;;;4.84;78.19;99985.69;10312091;28;20591;-64
2022/12/04 22:54:06;;;;;;;17.58;15.05;;;;;;;4.78;78.91;99983.41;10312716;28;20393;-62
2022/12/04 22:59:08;;;;;;;18.33;14.85;;;;;;;4.69;78.59;99984.81;10311339;28;20050;-62
2022/12/04 23:04:09;;;;;;;18.77;14.02;;;;;;;4.73;78.67;99985.50;10313840;28;20068;-63
2022/12/04 23:09:13;;;;;;;17.42;14.80;;;;;;;4.55;78.88;99971.63;10311618;28;20116;-62
2022/12/04 23:14:14;;;;;;;19.63;15.82;;;;;;;4.69;78.81;99989.25;10307762;28;20126;-62
2022/12/04 23:19:17;;;;;;;17.73;14.23;;;;;;;4.65;79.32;99982.47;10315024;28;20137;-62
2022/12/04 23:24:19;;;;;;;18.05;15.07;;;;;;;4.67;79.33;99991.13;10319906;28;20048;-61
2022/12/04 23:29:20;;;;;;;18.35;14.55;;;;;;;4.69;79.06;99998.00;10339475;28;21453;-65
2022/12/04 23:34:41;;;;;;;16.80;14.50;;;;;;;4.62;79.33;100003.75;10329948;28;20050;-64
2022/12/04 23:39:43;;;;;;;18.38;15.23;;;;;;;4.63;79.42;100013.34;10324863;28;20141;-64